Terminal Aerodrome Forecast
Issued by NWS

Home | Current Version | Previous Version | Text Only | Print | Product List | Glossary On
Versions: 1 2 3 4 5 6 7 8 9 10 11 12 13 14
000
FTUS41 KBTV 251730
TAFRUT
TAF
KRUT 251730Z 2518/2618 32009KT P6SM SCT045 BKN060
     FM252300 VRB05KT P6SM SCT040 BKN110
     FM261500 33005KT P6SM BKN050
      AMD LTD TO CLD VIS AND WIND=

USA.gov is the U.S. government's official web portal to all federal, state and local government web resources and services.